createdAt,value
2018-06-01T00:01:00.697Z,21.10
2018-06-01T00:03:27.026Z,21.00
2018-06-01T00:05:53.282Z,21.00
2018-06-01T00:08:20.358Z,20.90
2018-06-01T00:10:46.729Z,20.90
2018-06-01T00:13:13.237Z,20.80
2018-06-01T00:15:40.295Z,20.80
2018-06-01T00:18:07.324Z,20.80
2018-06-01T00:20:33.598Z,20.80
2018-06-01T00:22:59.932Z,20.70
2018-06-01T00:25:26.170Z,20.70
2018-06-01T00:27:52.458Z,20.70
2018-06-01T00:30:19.691Z,20.70
2018-06-01T00:32:46.048Z,20.70
2018-06-01T00:35:12.394Z,20.70
2018-06-01T00:37:38.711Z,20.60
2018-06-01T00:40:05.717Z,20.50
2018-06-01T00:42:31.991Z,20.50
2018-06-01T00:44:59.096Z,20.50
2018-06-01T00:47:25.546Z,20.40
2018-06-01T00:49:51.880Z,20.50
2018-06-01T00:52:18.142Z,20.40
2018-06-01T00:55:03.042Z,20.40
2018-06-01T00:57:29.296Z,20.40
2018-06-01T00:59:55.632Z,20.30
2018-06-01T01:02:21.917Z,20.30
2018-06-01T01:04:48.231Z,20.30
2018-06-01T01:07:14.587Z,20.30
2018-06-01T01:09:40.927Z,20.20
2018-06-01T01:12:07.343Z,20.10
2018-06-01T01:14:33.682Z,20.20
2018-06-01T01:17:00.176Z,20.20
2018-06-01T01:19:27.223Z,20.10
2018-06-01T01:21:54.288Z,20.10
2018-06-01T01:24:22.236Z,20.20
2018-06-01T01:26:49.276Z,20.20
2018-06-01T01:29:15.550Z,20.10
2018-06-01T01:31:41.821Z,20.10
2018-06-01T01:34:08.151Z,20.10
2018-06-01T01:36:34.515Z,20.10
2018-06-01T01:39:01.594Z,20.10
2018-06-01T01:41:27.920Z,20.10
2018-06-01T01:43:54.223Z,20.00
2018-06-01T01:46:21.455Z,20.00
2018-06-01T01:48:47.735Z,20.00
2018-06-01T01:51:14.321Z,20.10
2018-06-01T01:53:42.070Z,20.00
2018-06-01T01:56:08.365Z,20.00
2018-06-01T01:58:34.731Z,19.80
2018-06-01T02:01:01.048Z,19.70
2018-06-01T02:03:27.353Z,19.80
2018-06-01T02:05:53.657Z,19.70
2018-06-01T02:08:19.952Z,19.60
2018-06-01T02:10:46.238Z,19.70
2018-06-01T02:13:12.557Z,19.70
2018-06-01T02:15:39.591Z,19.70
2018-06-01T02:18:05.922Z,19.80
2018-06-01T02:20:32.192Z,19.60
2018-06-01T02:22:58.529Z,19.60
2018-06-01T02:25:24.794Z,19.60
2018-06-01T02:27:51.062Z,19.60
2018-06-01T02:30:18.062Z,19.40
2018-06-01T02:32:44.725Z,19.40
2018-06-01T02:35:10.995Z,19.30
2018-06-01T02:37:37.331Z,19.30
2018-06-01T02:40:03.733Z,19.30
2018-06-01T02:42:30.761Z,19.40
2018-06-01T02:44:57.035Z,19.40
2018-06-01T02:47:23.364Z,19.40
2018-06-01T02:49:49.796Z,19.40
2018-06-01T02:52:16.102Z,19.40
2018-06-01T02:54:43.134Z,19.30
2018-06-01T02:57:09.405Z,19.30
2018-06-01T02:59:35.799Z,19.20
2018-06-01T03:02:02.098Z,19.20
2018-06-01T03:04:28.565Z,19.20
2018-06-01T03:07:17.070Z,19.30
2018-06-01T03:09:43.359Z,19.40
2018-06-01T03:12:10.459Z,19.50
2018-06-01T03:14:36.753Z,19.50
2018-06-01T03:17:03.900Z,19.50
2018-06-01T03:19:30.996Z,19.50
2018-06-01T03:21:57.255Z,19.50
2018-06-01T03:24:25.050Z,19.50
2018-06-01T03:26:52.540Z,19.50
2018-06-01T03:29:18.794Z,19.50
2018-06-01T03:31:45.067Z,19.50
2018-06-01T03:34:12.111Z,19.70
2018-06-01T03:36:39.941Z,19.80
2018-06-01T03:39:06.273Z,19.80
2018-06-01T03:41:32.589Z,19.70
2018-06-01T03:43:58.906Z,19.80
2018-06-01T03:46:25.186Z,20.00
2018-06-01T03:48:52.970Z,19.90
2018-06-01T03:51:19.227Z,19.90
2018-06-01T03:53:45.505Z,20.00
2018-06-01T03:56:11.820Z,20.10
2018-06-01T03:58:38.089Z,20.10
2018-06-01T04:01:04.366Z,20.10
2018-06-01T04:03:30.643Z,20.30
2018-06-01T04:05:57.651Z,20.40
2018-06-01T04:08:23.938Z,20.40
2018-06-01T04:10:50.188Z,20.60
2018-06-01T04:13:16.435Z,20.70
2018-06-01T04:15:42.744Z,20.90
2018-06-01T04:18:09.253Z,21.20
2018-06-01T04:20:36.323Z,21.50
2018-06-01T04:23:02.572Z,21.50
2018-06-01T04:25:28.837Z,21.70
2018-06-01T04:27:55.864Z,22.00
2018-06-01T04:30:22.127Z,22.00
2018-06-01T04:32:48.841Z,21.90
2018-06-01T04:35:15.191Z,22.30
2018-06-01T04:37:42.210Z,22.80
2018-06-01T04:40:08.555Z,22.80
2018-06-01T04:42:34.849Z,23.20
2018-06-01T04:45:01.174Z,23.30
2018-06-01T04:47:27.434Z,23.60
2018-06-01T04:49:53.761Z,23.70
2018-06-01T04:52:20.006Z,23.80
2018-06-01T04:54:46.557Z,24.00
2018-06-01T04:57:13.583Z,23.90
2018-06-01T04:59:39.893Z,23.90
2018-06-01T05:02:06.181Z,23.90
2018-06-01T05:04:33.218Z,23.80
2018-06-01T05:07:00.302Z,23.90
2018-06-01T05:09:26.581Z,23.80
2018-06-01T05:11:53.609Z,24.20
2018-06-01T05:14:19.933Z,24.20
2018-06-01T05:16:46.263Z,24.30
2018-06-01T05:19:12.527Z,24.40
2018-06-01T05:21:38.826Z,24.10
2018-06-01T05:24:05.364Z,24.10
2018-06-01T05:26:31.675Z,24.00
2018-06-01T05:28:57.960Z,23.90
2018-06-01T05:31:24.254Z,23.60
2018-06-01T05:33:50.515Z,23.50
2018-06-01T05:36:16.799Z,23.50
2018-06-01T05:38:43.154Z,23.50
2018-06-01T05:41:09.562Z,23.70
2018-06-01T05:43:35.838Z,23.90
2018-06-01T05:46:02.115Z,23.70
2018-06-01T05:48:28.373Z,23.80
2018-06-01T05:50:54.703Z,24.20
2018-06-01T05:53:21.020Z,24.60
2018-06-01T05:55:47.375Z,24.80
2018-06-01T05:58:13.650Z,25.20
2018-06-01T06:00:40.647Z,25.50
2018-06-01T06:03:06.944Z,25.50
2018-06-01T06:05:33.318Z,25.30
2018-06-01T06:07:59.656Z,25.40
2018-06-01T06:10:26.237Z,25.40
2018-06-01T06:12:52.588Z,25.60
2018-06-01T06:15:18.891Z,25.50
2018-06-01T06:17:45.943Z,25.10
2018-06-01T06:20:12.355Z,25.10
2018-06-01T06:22:39.421Z,24.90
2018-06-01T06:25:06.503Z,24.50
2018-06-01T06:27:32.846Z,24.40
2018-06-01T06:29:59.126Z,24.20
2018-06-01T06:32:26.152Z,24.20
2018-06-01T06:34:52.500Z,24.20
2018-06-01T06:37:19.519Z,24.40
2018-06-01T06:39:45.799Z,24.40
2018-06-01T06:42:13.043Z,24.70
2018-06-01T06:44:39.361Z,25.00
2018-06-01T06:47:06.351Z,25.80
2018-06-01T06:49:32.651Z,25.80
2018-06-01T06:51:59.565Z,26.10
2018-06-01T06:54:25.850Z,26.30
2018-06-01T06:56:52.160Z,26.50
2018-06-01T06:59:18.414Z,26.80
2018-06-01T07:01:44.699Z,27.10
2018-06-01T07:04:11.726Z,27.10
2018-06-01T07:06:38.043Z,27.10
2018-06-01T07:09:04.306Z,27.20
2018-06-01T07:11:31.318Z,26.60
2018-06-01T07:13:58.332Z,26.20
2018-06-01T07:16:24.676Z,26.20
2018-06-01T07:18:51.016Z,26.10
2018-06-01T07:21:17.339Z,26.40
2018-06-01T07:23:43.690Z,26.70
2018-06-01T07:26:10.001Z,26.70
2018-06-01T07:28:36.268Z,26.60
2018-06-01T07:31:03.262Z,27.20
2018-06-01T07:33:29.571Z,27.20
2018-06-01T07:35:56.790Z,27.40
2018-06-01T07:38:23.075Z,27.40
2018-06-01T07:40:49.407Z,27.40
2018-06-01T07:43:15.713Z,27.30
2018-06-01T07:45:42.826Z,27.30
2018-06-01T07:48:09.138Z,27.30
2018-06-01T07:50:35.552Z,27.20
2018-06-01T07:53:01.848Z,27.30
2018-06-01T07:55:28.152Z,27.30
2018-06-01T07:57:54.437Z,27.30
2018-06-01T08:00:20.695Z,27.00
2018-06-01T08:02:46.947Z,26.90
2018-06-01T08:05:13.264Z,26.70
2018-06-01T08:07:39.594Z,26.80
2018-06-01T08:10:05.922Z,27.00
2018-06-01T08:12:32.249Z,27.00
2018-06-01T08:14:58.575Z,27.10
2018-06-01T08:17:24.921Z,27.30
2018-06-01T08:19:51.245Z,27.20
2018-06-01T08:22:17.572Z,27.50
2018-06-01T08:24:43.891Z,28.00
2018-06-01T08:27:10.230Z,27.60
2018-06-01T08:29:36.550Z,27.10
2018-06-01T08:32:02.808Z,27.50
2018-06-01T08:34:29.138Z,27.70
2018-06-01T08:36:55.435Z,28.00
2018-06-01T08:39:22.719Z,28.20
2018-06-01T08:41:49.007Z,28.10
2018-06-01T08:44:16.061Z,27.60
2018-06-01T08:46:42.450Z,27.50
2018-06-01T08:49:08.713Z,27.50
2018-06-01T08:51:35.757Z,27.40
2018-06-01T08:54:02.775Z,27.80
2018-06-01T08:56:29.057Z,27.80
2018-06-01T08:58:55.486Z,27.90
2018-06-01T09:01:21.762Z,28.00
2018-06-01T09:03:48.021Z,28.30
2018-06-01T09:06:14.411Z,28.30
2018-06-01T09:08:40.843Z,28.00
2018-06-01T09:11:07.195Z,28.60
2018-06-01T09:13:33.471Z,29.20
2018-06-01T09:15:59.751Z,29.00
2018-06-01T09:18:26.054Z,28.80
2018-06-01T09:20:52.332Z,28.30
2018-06-01T09:23:18.648Z,28.10
2018-06-01T09:25:44.939Z,28.40
2018-06-01T09:28:12.274Z,28.90
2018-06-01T09:30:39.307Z,29.00
2018-06-01T09:33:07.184Z,29.20
2018-06-01T09:35:34.236Z,29.10
2018-06-01T09:38:00.559Z,29.00
2018-06-01T09:40:27.623Z,29.00
2018-06-01T09:42:53.932Z,28.90
2018-06-01T09:45:20.993Z,28.80
2018-06-01T09:47:48.038Z,28.50
2018-06-01T09:50:15.080Z,28.70
2018-06-01T09:52:42.201Z,29.30
2018-06-01T09:55:08.519Z,29.30
2018-06-01T09:57:34.797Z,29.20
2018-06-01T10:00:01.130Z,29.10
2018-06-01T10:02:28.173Z,29.40
2018-06-01T10:04:55.236Z,29.20
2018-06-01T10:07:21.583Z,29.20
2018-06-01T10:09:54.143Z,29.10
2018-06-01T10:12:20.452Z,29.10
2018-06-01T10:14:47.500Z,29.60
2018-06-01T10:17:14.583Z,29.70
2018-06-01T10:19:40.900Z,29.70
2018-06-01T10:22:07.243Z,29.80
2018-06-01T10:24:33.608Z,30.10
2018-06-01T10:26:59.910Z,30.40
2018-06-01T10:29:26.287Z,30.60
2018-06-01T10:31:52.574Z,30.90
2018-06-01T10:34:19.027Z,31.20
2018-06-01T10:36:45.331Z,31.30
2018-06-01T10:39:11.655Z,31.20
2018-06-01T10:41:37.988Z,31.10
2018-06-01T10:44:04.361Z,30.90
2018-06-01T10:46:30.650Z,30.80
2018-06-01T10:48:57.209Z,31.10
2018-06-01T10:51:23.835Z,31.00
2018-06-01T10:53:50.136Z,30.80
2018-06-01T10:56:17.163Z,30.90
2018-06-01T10:58:43.433Z,30.80
2018-06-01T11:01:09.780Z,31.50
2018-06-01T11:03:36.094Z,31.70
2018-06-01T11:06:02.543Z,31.70
2018-06-01T11:08:28.873Z,31.90
2018-06-01T11:10:55.189Z,31.70
2018-06-01T11:13:21.524Z,32.00
2018-06-01T11:15:47.825Z,32.70
2018-06-01T11:18:14.868Z,32.30
2018-06-01T11:20:41.157Z,32.20
2018-06-01T11:23:07.484Z,32.90
2018-06-01T11:25:33.907Z,32.80
2018-06-01T11:28:00.159Z,33.20
2018-06-01T11:30:26.475Z,32.00
2018-06-01T11:32:52.755Z,31.80
2018-06-01T11:35:20.574Z,33.20
2018-06-01T11:37:46.871Z,33.20
2018-06-01T11:40:13.910Z,34.60
2018-06-01T11:42:40.976Z,35.10
2018-06-01T11:45:08.050Z,34.90
2018-06-01T11:47:34.385Z,34.90
2018-06-01T11:50:00.651Z,34.80
2018-06-01T11:52:27.691Z,36.40
2018-06-01T11:54:53.975Z,36.30
2018-06-01T11:57:20.294Z,37.40
2018-06-01T11:59:47.186Z,38.50
2018-06-01T12:02:13.460Z,39.50
2018-06-01T12:04:40.688Z,40.80
2018-06-01T12:07:07.007Z,40.70
2018-06-01T12:09:33.353Z,40.90
2018-06-01T12:12:01.137Z,41.70
2018-06-01T12:14:28.195Z,41.70
2018-06-01T12:16:55.175Z,40.50
2018-06-01T12:19:21.457Z,40.40
2018-06-01T12:21:48.472Z,38.00
2018-06-01T12:24:14.772Z,37.90
2018-06-01T12:26:41.018Z,39.80
2018-06-01T12:29:07.372Z,40.30
2018-06-01T12:31:34.491Z,39.80
2018-06-01T12:34:00.779Z,39.40
2018-06-01T12:36:27.843Z,36.50
2018-06-01T12:38:54.170Z,36.40
2018-06-01T12:41:21.216Z,36.90
2018-06-01T12:43:48.257Z,36.60
2018-06-01T12:46:15.286Z,35.50
2018-06-01T12:48:41.549Z,35.40
2018-06-01T12:51:07.898Z,34.10
2018-06-01T12:53:34.213Z,33.90
2018-06-01T12:56:00.520Z,33.10
2018-06-01T12:58:27.588Z,32.70
2018-06-01T13:00:54.654Z,32.50
2018-06-01T13:03:20.959Z,32.40
2018-06-01T13:05:48.034Z,31.00
2018-06-01T13:08:14.344Z,30.90
2018-06-01T13:10:41.421Z,26.60
2018-06-01T13:13:07.706Z,26.40
2018-06-01T13:15:34.005Z,25.70
2018-06-01T13:18:00.327Z,25.00
2018-06-01T13:20:26.697Z,24.30
2018-06-01T13:22:53.028Z,24.00
2018-06-01T13:25:20.062Z,19.40
2018-06-01T13:27:46.369Z,19.20
2018-06-01T13:30:12.671Z,17.80
2018-06-01T13:32:38.933Z,17.00
2018-06-01T13:35:05.357Z,16.90
2018-06-01T13:37:31.702Z,16.80
2018-06-01T13:39:57.970Z,17.00
2018-06-01T13:42:25.051Z,17.00
2018-06-01T13:44:51.524Z,17.00
2018-06-01T13:47:18.572Z,17.90
2018-06-01T13:49:44.873Z,17.90
2018-06-01T13:52:11.302Z,18.20
2018-06-01T13:54:37.552Z,18.50
2018-06-01T13:57:03.874Z,18.60
2018-06-01T13:59:30.211Z,19.00
2018-06-01T14:01:56.561Z,18.50
2018-06-01T14:04:23.050Z,18.50
2018-06-01T14:06:49.425Z,18.20
2018-06-01T14:09:15.756Z,18.00
2018-06-01T14:11:42.112Z,18.00
2018-06-01T14:14:08.417Z,17.90
2018-06-01T14:16:34.748Z,17.60
2018-06-01T14:19:01.069Z,17.80
2018-06-01T14:21:27.392Z,18.10
2018-06-01T14:23:53.689Z,18.20
2018-06-01T14:26:20.020Z,18.20
2018-06-01T14:28:47.059Z,18.30
2018-06-01T14:31:14.107Z,18.30
2018-06-01T14:33:41.157Z,18.20
2018-06-01T14:36:07.462Z,18.20
2018-06-01T14:38:33.816Z,18.20
2018-06-01T14:41:00.868Z,18.20
2018-06-01T14:43:27.226Z,18.20
2018-06-01T14:45:53.527Z,18.20
2018-06-01T14:48:20.641Z,18.20
2018-06-01T14:50:46.939Z,18.20
2018-06-01T14:53:13.271Z,18.30
2018-06-01T14:55:39.651Z,18.30
2018-06-01T14:58:06.078Z,18.40
2018-06-01T15:00:32.398Z,18.30
2018-06-01T15:02:58.699Z,18.30
2018-06-01T15:05:24.959Z,18.20
2018-06-01T15:07:51.280Z,18.30
2018-06-01T15:10:17.556Z,18.40
2018-06-01T15:12:44.822Z,18.50
2018-06-01T15:15:11.097Z,18.60
2018-06-01T15:17:37.397Z,18.60
2018-06-01T15:20:04.565Z,18.60
2018-06-01T15:22:30.859Z,18.70
2018-06-01T15:24:57.119Z,18.90
2018-06-01T15:27:23.427Z,19.00
2018-06-01T15:29:49.854Z,19.20
2018-06-01T15:32:16.219Z,19.30
2018-06-01T15:34:42.614Z,19.20
2018-06-01T15:37:09.627Z,19.30
2018-06-01T15:39:36.047Z,19.30
2018-06-01T15:42:02.469Z,19.50
2018-06-01T15:44:28.938Z,19.40
2018-06-01T15:46:55.238Z,19.30
2018-06-01T15:49:21.574Z,19.20
2018-06-01T15:51:47.879Z,19.20
2018-06-01T15:54:14.165Z,19.20
2018-06-01T15:56:41.179Z,19.20
2018-06-01T15:59:07.415Z,19.20
2018-06-01T16:01:33.732Z,19.30
2018-06-01T16:04:00.067Z,19.40
2018-06-01T16:06:26.386Z,19.50
2018-06-01T16:08:52.658Z,19.30
2018-06-01T16:11:18.936Z,19.40
2018-06-01T16:13:45.203Z,19.40
2018-06-01T16:16:11.521Z,19.40
2018-06-01T16:18:37.843Z,19.40
2018-06-01T16:21:04.186Z,19.60
2018-06-01T16:23:30.459Z,19.80
2018-06-01T16:25:57.477Z,19.90
2018-06-01T16:28:24.122Z,19.80
2018-06-01T16:30:50.398Z,19.90
2018-06-01T16:33:16.696Z,20.00
2018-06-01T16:35:42.997Z,20.00
2018-06-01T16:38:09.362Z,20.20
2018-06-01T16:40:36.393Z,20.20
2018-06-01T16:43:02.767Z,20.20
2018-06-01T16:45:29.106Z,20.30
2018-06-01T16:47:55.448Z,20.00
2018-06-01T16:50:21.801Z,20.10
2018-06-01T16:52:48.127Z,20.20
2018-06-01T16:55:14.545Z,20.10
2018-06-01T16:57:40.873Z,20.30
2018-06-01T17:00:07.196Z,20.40
2018-06-01T17:02:33.558Z,20.40
2018-06-01T17:04:59.864Z,20.30
2018-06-01T17:07:26.177Z,20.30
2018-06-01T17:09:53.201Z,20.50
2018-06-01T17:12:19.716Z,20.50
2018-06-01T17:14:46.185Z,20.60
2018-06-01T17:17:12.971Z,20.70
2018-06-01T17:19:40.592Z,20.60
2018-06-01T17:22:08.054Z,20.50
2018-06-01T17:24:34.545Z,20.50
2018-06-01T17:27:01.417Z,20.50
2018-06-01T17:29:27.768Z,20.50
2018-06-01T17:31:55.033Z,20.50
2018-06-01T17:34:21.648Z,20.50
2018-06-01T17:36:48.925Z,20.40
2018-06-01T17:39:15.287Z,20.30
2018-06-01T17:41:41.820Z,20.40
2018-06-01T17:44:09.051Z,20.20
2018-06-01T17:46:35.544Z,20.10
2018-06-01T17:49:02.404Z,20.00
2018-06-01T17:51:29.520Z,20.20
2018-06-01T17:53:56.403Z,20.20
2018-06-01T17:56:23.401Z,20.30
2018-06-01T17:58:49.678Z,20.30
2018-06-01T18:01:16.729Z,20.20
2018-06-01T18:03:43.512Z,20.20
2018-06-01T18:06:10.538Z,20.20
2018-06-01T18:08:36.860Z,20.20
2018-06-01T18:11:03.202Z,20.30
2018-06-01T18:13:29.629Z,20.40
2018-06-01T18:15:55.938Z,20.50
2018-06-01T18:18:23.061Z,20.60
2018-06-01T18:20:49.312Z,20.60
2018-06-01T18:23:16.421Z,20.40
2018-06-01T18:25:42.714Z,20.40
2018-06-01T18:28:09.015Z,20.30
2018-06-01T18:30:35.367Z,20.10
2018-06-01T18:33:02.422Z,20.00
2018-06-01T18:35:28.681Z,20.00
2018-06-01T18:37:55.003Z,20.00
2018-06-01T18:40:21.331Z,20.10
2018-06-01T18:42:47.636Z,20.00
2018-06-01T18:45:14.698Z,20.10
2018-06-01T18:47:41.020Z,20.10
2018-06-01T18:50:08.062Z,20.10
2018-06-01T18:52:35.093Z,20.10
2018-06-01T18:55:01.393Z,20.00
2018-06-01T18:57:27.715Z,20.10
2018-06-01T18:59:54.013Z,20.10
2018-06-01T19:02:20.334Z,20.10
2018-06-01T19:04:47.406Z,20.20
2018-06-01T19:07:13.720Z,20.20
2018-06-01T19:09:40.816Z,20.20
2018-06-01T19:12:07.102Z,20.20
2018-06-01T19:14:33.415Z,20.20
2018-06-01T19:17:00.462Z,20.20
2018-06-01T19:19:27.535Z,20.20
2018-06-01T19:21:53.888Z,20.20
2018-06-01T19:24:20.228Z,20.20
2018-06-01T19:26:46.518Z,20.20
2018-06-01T19:29:13.593Z,20.10
2018-06-01T19:31:39.935Z,20.10
2018-06-01T19:34:06.299Z,20.10
2018-06-01T19:36:32.553Z,20.10
2018-06-01T19:38:59.873Z,20.10
2018-06-01T19:41:26.234Z,20.00
2018-06-01T19:43:53.286Z,20.10
2018-06-01T19:46:20.423Z,20.30
2018-06-01T19:48:46.933Z,20.20
2018-06-01T19:51:13.331Z,20.30
2018-06-01T19:53:42.018Z,20.30
2018-06-01T19:56:08.348Z,20.30
2018-06-01T19:58:34.634Z,20.30
2018-06-01T20:01:01.042Z,20.10
2018-06-01T20:03:27.358Z,20.10
2018-06-01T20:05:53.686Z,20.10
2018-06-01T20:08:19.952Z,20.10
2018-06-01T20:10:46.438Z,20.00
2018-06-01T20:13:13.671Z,20.00
2018-06-01T20:15:41.459Z,19.90
2018-06-01T20:18:07.924Z,19.90
2018-06-01T20:20:34.661Z,20.00
2018-06-01T20:23:01.561Z,20.10
2018-06-01T20:25:27.870Z,20.20
2018-06-01T20:27:54.924Z,20.30
2018-06-01T20:30:21.930Z,20.20
2018-06-01T20:32:48.219Z,20.20
2018-06-01T20:35:15.256Z,20.10
2018-06-01T20:37:42.846Z,20.10
2018-06-01T20:40:09.137Z,20.00
2018-06-01T20:42:36.315Z,20.10
2018-06-01T20:45:02.641Z,20.00
2018-06-01T20:47:29.727Z,19.90
2018-06-01T20:49:56.055Z,19.80
2018-06-01T20:52:22.340Z,19.90
2018-06-01T20:54:49.514Z,20.00
2018-06-01T20:57:15.801Z,20.00
2018-06-01T20:59:42.086Z,20.10
2018-06-01T21:02:08.487Z,20.10
2018-06-01T21:04:35.541Z,20.10
2018-06-01T21:07:01.876Z,20.10
2018-06-01T21:09:28.214Z,20.10
2018-06-01T21:11:54.511Z,20.10
2018-06-01T21:14:20.916Z,20.00
2018-06-01T21:16:47.361Z,20.00
2018-06-01T21:19:13.720Z,20.00
2018-06-01T21:21:40.881Z,19.90
2018-06-01T21:24:07.953Z,20.00
2018-06-01T21:26:34.224Z,19.90
2018-06-01T21:29:00.548Z,20.00
2018-06-01T21:31:26.825Z,20.00
2018-06-01T21:33:53.126Z,19.90
2018-06-01T21:36:19.471Z,19.90
2018-06-01T21:38:46.581Z,19.80
2018-06-01T21:41:13.413Z,19.80
2018-06-01T21:43:39.739Z,19.90
2018-06-01T21:46:06.170Z,19.90
2018-06-01T21:48:32.501Z,19.90
2018-06-01T21:50:58.803Z,19.90
2018-06-01T21:53:25.083Z,19.90
2018-06-01T21:55:51.379Z,19.90
2018-06-01T21:58:17.702Z,20.00
2018-06-01T22:00:44.050Z,19.90
2018-06-01T22:03:10.410Z,19.90
2018-06-01T22:05:36.730Z,19.90
2018-06-01T22:08:03.037Z,20.00
2018-06-01T22:10:29.345Z,20.10
2018-06-01T22:12:56.426Z,20.00
2018-06-01T22:15:22.764Z,20.00
2018-06-01T22:17:49.064Z,20.00
2018-06-01T22:20:15.437Z,20.00
2018-06-01T22:22:41.738Z,20.00
2018-06-01T22:25:08.040Z,20.00
2018-06-01T22:27:35.124Z,20.00
2018-06-01T22:30:01.430Z,19.90
2018-06-01T22:32:28.467Z,20.10
2018-06-01T22:34:55.515Z,20.00
2018-06-01T22:37:22.564Z,20.00
2018-06-01T22:39:49.663Z,20.00
2018-06-01T22:42:15.956Z,20.00
2018-06-01T22:44:42.953Z,19.90
2018-06-01T22:47:09.333Z,19.90
2018-06-01T22:49:36.409Z,20.00
2018-06-01T22:52:02.737Z,20.00
2018-06-01T22:54:29.051Z,19.80
2018-06-01T22:56:55.362Z,19.80
2018-06-01T22:59:21.615Z,19.90
2018-06-01T23:01:47.902Z,19.80
2018-06-01T23:04:14.167Z,19.80
2018-06-01T23:06:41.247Z,19.80
2018-06-01T23:09:07.555Z,19.80
2018-06-01T23:11:33.889Z,19.80
2018-06-01T23:14:00.193Z,19.80
2018-06-01T23:16:27.243Z,19.70
2018-06-01T23:18:54.252Z,19.80
2018-06-01T23:21:20.589Z,19.80
2018-06-01T23:23:46.875Z,19.70
2018-06-01T23:26:14.033Z,19.80
2018-06-01T23:28:40.363Z,19.70
2018-06-01T23:31:06.703Z,19.70
2018-06-01T23:33:32.947Z,19.70
2018-06-01T23:36:00.044Z,19.70
2018-06-01T23:38:27.060Z,19.60
2018-06-01T23:40:53.328Z,19.60
2018-06-01T23:43:20.362Z,19.50
2018-06-01T23:45:46.673Z,19.40
2018-06-01T23:48:13.091Z,19.40
2018-06-01T23:50:39.445Z,19.30
2018-06-01T23:53:05.778Z,19.30
2018-06-01T23:55:32.088Z,19.20
2018-06-01T23:57:58.360Z,19.30
